Time;durP1;ratioP1;P1;durP2;ratioP2;P2;SDS_P1;SDS_P2;PMS_P1;PMS_P2;Temp;Humidity;BMP_temperature;BMP_pressure;BME280_temperature;BME280_humidity;BME280_pressure;Samples;Min_cycle;Max_cycle;Signal;HPM_P1;HPM_P2
2021/03/09 00:00:10;;;;;;;23.50;15.25;;;7.90;99.90;;;;;;5093643;28;20016;-80
2021/03/09 00:02:36;;;;;;;20.52;15.13;;;7.90;99.90;;;;;;5092657;28;20040;-80
2021/03/09 00:05:03;;;;;;;21.08;16.10;;;7.90;99.90;;;;;;5092935;28;20031;-80
2021/03/09 00:07:28;;;;;;;20.67;14.65;;;7.80;99.90;;;;;;5092579;28;20035;-80
2021/03/09 00:09:54;;;;;;;24.23;14.93;;;7.70;99.90;;;;;;5093313;28;20453;-80
2021/03/09 00:12:20;;;;;;;21.73;15.82;;;7.60;99.90;;;;;;5093065;28;20524;-80
2021/03/09 00:14:46;;;;;;;22.73;16.38;;;7.50;99.90;;;;;;5093214;28;20047;-80
2021/03/09 00:17:12;;;;;;;21.90;15.48;;;7.50;99.90;;;;;;5093253;28;20483;-80
2021/03/09 00:19:38;;;;;;;19.48;15.52;;;7.50;99.90;;;;;;5093409;28;20487;-80
2021/03/09 00:22:03;;;;;;;23.08;15.75;;;7.40;99.90;;;;;;5093444;28;20020;-80
2021/03/09 00:24:29;;;;;;;25.10;16.10;;;7.40;99.90;;;;;;5093616;28;20476;-80
2021/03/09 00:26:54;;;;;;;24.77;15.55;;;7.40;99.90;;;;;;5093617;28;20472;-80
2021/03/09 00:29:20;;;;;;;22.88;15.20;;;7.40;99.90;;;;;;5093449;28;20089;-80
2021/03/09 00:31:46;;;;;;;20.15;15.35;;;7.40;99.90;;;;;;5074863;28;20110;-80
2021/03/09 00:34:11;;;;;;;22.58;16.13;;;7.60;99.90;;;;;;5092946;28;20406;-80
2021/03/09 00:36:37;;;;;;;21.73;15.48;;;7.80;99.90;;;;;;5093237;28;20020;-80
2021/03/09 00:39:03;;;;;;;23.55;15.20;;;7.20;99.90;;;;;;5093197;28;20028;-80
2021/03/09 00:41:29;;;;;;;23.92;16.00;;;7.10;99.90;;;;;;5074456;28;20563;-80
2021/03/09 00:43:54;;;;;;;22.02;15.88;;;7.00;99.90;;;;;;5093116;28;20111;-80
2021/03/09 00:46:20;;;;;;;23.83;15.38;;;7.00;99.90;;;;;;5092855;28;20024;-80
2021/03/09 00:48:45;;;;;;;21.48;15.35;;;6.80;99.90;;;;;;5092847;28;20107;-80
2021/03/09 00:51:11;;;;;;;22.58;15.90;;;6.90;99.90;;;;;;5092862;28;20032;-80
2021/03/09 00:53:37;;;;;;;22.38;15.85;;;6.90;99.90;;;;;;5074768;28;20037;-80
2021/03/09 00:56:02;;;;;;;24.65;16.08;;;7.30;99.90;;;;;;5092835;28;20056;-80
2021/03/09 00:58:28;;;;;;;20.05;14.95;;;6.80;99.90;;;;;;5074225;28;20032;-80
2021/03/09 01:00:54;;;;;;;21.60;15.00;;;6.90;99.90;;;;;;5093049;28;20020;-80
2021/03/09 01:03:20;;;;;;;21.85;15.30;;;7.00;99.90;;;;;;5092565;28;20518;-80
2021/03/09 01:05:46;;;;;;;20.58;15.07;;;6.90;99.90;;;;;;5093447;28;20419;-80
2021/03/09 01:08:12;;;;;;;21.90;15.05;;;6.90;99.90;;;;;;5075149;28;20032;-80
2021/03/09 01:10:38;;;;;;;22.30;15.43;;;6.90;99.90;;;;;;5093239;28;20387;-80
2021/03/09 01:13:04;;;;;;;24.60;15.65;;;6.90;99.90;;;;;;5092714;28;20024;-80
2021/03/09 01:15:30;;;;;;;22.30;15.45;;;6.90;99.90;;;;;;5091845;28;20028;-80
2021/03/09 01:17:55;;;;;;;24.48;15.95;;;7.40;99.90;;;;;;5092145;28;20500;-80
2021/03/09 01:20:21;;;;;;;22.65;15.55;;;6.90;99.90;;;;;;5092486;28;20028;-80
2021/03/09 01:22:47;;;;;;;22.90;16.25;;;6.80;99.90;;;;;;5091548;28;20104;-80
2021/03/09 01:25:13;;;;;;;21.67;15.15;;;6.80;99.90;;;;;;5073556;28;20028;-80
2021/03/09 01:27:38;;;;;;;26.25;16.67;;;6.80;99.90;;;;;;5092700;28;20063;-80
2021/03/09 01:30:07;;;;;;;23.20;16.05;;;7.30;99.90;;;;;;5092191;28;20472;-80
2021/03/09 01:32:32;;;;;;;23.17;15.77;;;7.00;99.90;;;;;;5092360;28;20075;-80
2021/03/09 01:34:58;;;;;;;21.98;15.60;;;7.50;99.90;;;;;;5092226;28;20039;-80
2021/03/09 01:37:24;;;;;;;22.17;15.95;;;7.10;99.90;;;;;;5092273;28;20016;-80
2021/03/09 01:39:49;;;;;;;22.98;16.27;;;7.20;99.90;;;;;;5092606;28;20052;-80
2021/03/09 01:42:16;;;;;;;22.10;16.13;;;7.30;99.90;;;;;;5092360;28;20024;-80
2021/03/09 01:44:41;;;;;;;24.00;15.68;;;7.20;99.90;;;;;;5092178;28;20067;-80
2021/03/09 01:47:07;;;;;;;25.05;16.65;;;6.70;99.90;;;;;;5073991;28;20060;-80
2021/03/09 01:49:36;;;;;;;23.33;16.92;;;6.70;99.90;;;;;;5092290;28;20065;-80
2021/03/09 01:52:05;;;;;;;25.40;16.45;;;6.80;99.90;;;;;;5092314;28;20036;-80
2021/03/09 01:54:31;;;;;;;24.02;17.05;;;6.70;99.90;;;;;;5092371;28;20024;-80
2021/03/09 01:56:57;;;;;;;22.63;16.40;;;6.90;99.90;;;;;;5092256;28;20036;-80
2021/03/09 01:59:23;;;;;;;23.52;16.65;;;6.70;99.90;;;;;;5091842;28;20480;-81
2021/03/09 02:01:50;;;;;;;25.30;16.92;;;7.00;99.90;;;;;;5091974;28;20028;-81
2021/03/09 02:04:15;;;;;;;22.98;17.15;;;6.80;99.90;;;;;;5091676;28;20044;-80
2021/03/09 02:06:41;;;;;;;20.77;16.30;;;6.70;99.90;;;;;;5092250;28;20047;-80
2021/03/09 02:09:07;;;;;;;25.30;17.30;;;7.00;99.90;;;;;;5091921;28;20107;-80
2021/03/09 02:11:54;;;;;;;24.27;17.08;;;6.60;99.90;;;;;;5092171;28;20032;-80
2021/03/09 02:14:35;;;;;;;25.60;17.65;;;6.60;99.90;;;;;;5091794;28;20053;-80
2021/03/09 02:17:17;;;;;;;22.17;15.98;;;6.50;99.90;;;;;;5092060;28;20072;-80
2021/03/09 02:20:06;;;;;;;24.40;17.17;;;6.40;99.90;;;;;;5092225;28;20099;-80
2021/03/09 02:23:05;;;;;;;24.05;17.67;;;6.40;99.90;;;;;;4990252;28;20039;-80
2021/03/09 02:25:55;;;;;;;23.13;16.67;;;6.30;99.90;;;;;;4990259;28;20022;-80
2021/03/09 02:28:26;;;;;;;24.33;16.50;;;6.20;99.90;;;;;;4990154;28;20561;-80
2021/03/09 02:30:55;;;;;;;23.48;18.08;;;6.30;99.90;;;;;;4990258;28;20421;-80
2021/03/09 02:33:35;;;;;;;23.85;17.85;;;6.20;99.90;;;;;;4986681;28;20047;-80
2021/03/09 02:36:08;;;;;;;22.65;17.15;;;6.30;99.90;;;;;;4971380;28;20537;-80
2021/03/09 02:38:52;;;;;;;22.45;16.85;;;6.30;99.90;;;;;;4974269;28;20030;-80
2021/03/09 02:41:20;;;;;;;22.67;17.00;;;6.40;99.90;;;;;;4974363;28;20472;-80
2021/03/09 02:43:54;;;;;;;22.60;17.15;;;6.30;99.90;;;;;;4974242;28;20067;-80
2021/03/09 02:46:22;;;;;;;22.73;16.90;;;6.40;99.90;;;;;;4971620;28;20405;-80
2021/03/09 02:48:50;;;;;;;23.27;17.17;;;6.20;99.90;;;;;;4993754;28;20114;-80
2021/03/09 02:51:16;;;;;;;21.85;17.23;;;6.30;99.90;;;;;;4993664;28;20034;-80
2021/03/09 02:53:50;;;;;;;25.13;18.13;;;6.00;99.90;;;;;;4993626;28;20077;-80
2021/03/09 02:56:17;;;;;;;23.92;18.13;;;6.30;99.90;;;;;;4993662;28;20414;-80
2021/03/09 02:58:49;;;;;;;24.83;17.73;;;6.00;99.90;;;;;;5007878;28;20035;-80
2021/03/09 03:01:16;;;;;;;23.70;17.20;;;5.90;99.90;;;;;;5094768;28;20016;-80
2021/03/09 03:03:46;;;;;;;24.27;17.73;;;5.70;99.90;;;;;;5076823;28;20496;-80
2021/03/09 03:06:13;;;;;;;25.13;18.17;;;6.20;99.90;;;;;;5095117;28;20023;-80
2021/03/09 03:08:40;;;;;;;24.75;18.20;;;5.80;99.90;;;;;;5095060;28;20107;-80
2021/03/09 03:11:07;;;;;;;25.50;18.48;;;5.90;99.90;;;;;;5095071;28;20067;-80
2021/03/09 03:13:33;;;;;;;25.75;18.02;;;5.90;99.90;;;;;;5094598;28;20032;-80
2021/03/09 03:16:01;;;;;;;24.67;18.83;;;6.00;99.90;;;;;;5085585;28;20503;-80
2021/03/09 03:18:31;;;;;;;21.85;17.33;;;5.60;99.90;;;;;;5076729;28;20464;-80
2021/03/09 03:20:56;;;;;;;25.27;18.30;;;5.80;99.90;;;;;;5076604;28;20051;-80
2021/03/09 03:23:23;;;;;;;25.42;18.02;;;6.10;99.90;;;;;;5094542;28;20101;-80
2021/03/09 03:25:54;;;;;;;24.42;17.40;;;5.90;99.90;;;;;;5094501;28;20383;-80
2021/03/09 03:28:21;;;;;;;23.10;16.90;;;5.60;99.90;;;;;;5094576;28;20035;-80
2021/03/09 03:30:48;;;;;;;24.63;16.85;;;5.60;99.90;;;;;;5094084;28;20565;-80
2021/03/09 03:33:14;;;;;;;25.67;18.60;;;6.00;99.90;;;;;;5094440;28;20059;-80
2021/03/09 03:35:40;;;;;;;26.48;19.70;;;6.10;99.90;;;;;;5094450;28;20048;-80
2021/03/09 03:38:06;;;;;;;26.20;19.70;;;5.60;99.90;;;;;;5083199;28;20039;-80
2021/03/09 03:40:32;;;;;;;24.58;19.10;;;6.10;99.90;;;;;;5073615;28;20492;-80
2021/03/09 03:42:57;;;;;;;25.23;18.60;;;5.90;99.90;;;;;;5074265;28;20028;-80
2021/03/09 03:45:24;;;;;;;24.50;19.05;;;5.50;99.90;;;;;;5086701;28;20499;-80
2021/03/09 03:47:58;;;;;;;25.58;18.85;;;5.80;99.90;;;;;;5094046;28;20028;-80
2021/03/09 03:50:25;;;;;;;24.30;18.05;;;5.90;99.90;;;;;;5094281;28;20387;-80
2021/03/09 03:52:51;;;;;;;25.23;18.83;;;5.80;99.90;;;;;;5094048;28;20031;-80
2021/03/09 03:55:45;;;;;;;23.55;18.50;;;5.70;99.90;;;;;;5093829;28;20043;-80
2021/03/09 03:58:40;;;;;;;24.38;18.00;;;5.30;99.90;;;;;;5082289;28;20488;-80
2021/03/09 04:01:08;;;;;;;24.73;18.77;;;5.30;99.90;;;;;;5073814;28;20066;-80
2021/03/09 04:03:36;;;;;;;22.77;17.73;;;5.30;99.90;;;;;;5073247;28;20056;-80
2021/03/09 04:06:04;;;;;;;25.35;18.60;;;5.70;99.90;;;;;;5073608;28;20035;-80
2021/03/09 04:08:33;;;;;;;25.13;18.75;;;5.30;99.90;;;;;;5073365;28;20108;-80
2021/03/09 04:11:00;;;;;;;23.40;18.60;;;5.80;99.90;;;;;;5073307;28;20028;-80
2021/03/09 04:13:26;;;;;;;26.75;19.13;;;5.80;99.90;;;;;;5073320;28;20077;-80
2021/03/09 04:15:55;;;;;;;27.85;18.90;;;5.80;99.90;;;;;;5089912;28;20028;-80
2021/03/09 04:18:24;;;;;;;23.77;18.40;;;5.40;99.90;;;;;;5093766;28;20483;-80
2021/03/09 04:20:51;;;;;;;27.48;18.58;;;5.60;99.90;;;;;;5093418;28;20671;-80
2021/03/09 04:23:18;;;;;;;25.85;19.30;;;5.50;99.90;;;;;;5075415;28;20024;-80
2021/03/09 04:25:46;;;;;;;29.00;19.58;;;5.40;99.90;;;;;;5093117;28;20027;-80
2021/03/09 04:28:12;;;;;;;23.58;17.63;;;5.10;99.90;;;;;;5093581;28;20032;-80
2021/03/09 04:30:39;;;;;;;28.95;20.10;;;5.80;99.90;;;;;;5093230;28;20019;-80
2021/03/09 04:33:05;;;;;;;28.73;20.17;;;5.60;99.90;;;;;;5093187;28;20032;-80
2021/03/09 04:35:31;;;;;;;25.50;18.42;;;5.40;99.90;;;;;;5093148;28;20055;-80
2021/03/09 04:37:58;;;;;;;26.33;19.85;;;5.30;99.90;;;;;;5093295;28;20468;-80
2021/03/09 04:40:24;;;;;;;25.00;18.65;;;5.30;99.90;;;;;;5092694;28;20031;-81
2021/03/09 04:42:49;;;;;;;26.63;19.23;;;5.80;99.90;;;;;;5093221;28;20024;-81
2021/03/09 04:45:15;;;;;;;24.92;18.15;;;5.80;99.90;;;;;;5092798;28;20020;-80
2021/03/09 04:47:42;;;;;;;25.35;18.50;;;5.70;99.90;;;;;;5092575;28;20059;-80
2021/03/09 04:50:09;;;;;;;26.35;19.23;;;5.80;99.90;;;;;;5093427;28;20790;-80
2021/03/09 04:52:35;;;;;;;24.73;18.63;;;5.10;99.90;;;;;;5081856;28;20367;-80
2021/03/09 04:55:03;;;;;;;26.60;18.52;;;5.00;99.90;;;;;;5084321;28;20013;-80
2021/03/09 04:57:40;;;;;;;24.40;18.25;;;4.90;99.90;;;;;;5072831;28;20020;-80
2021/03/09 05:00:08;;;;;;;24.20;18.15;;;5.30;99.90;;;;;;5089664;28;20059;-80
2021/03/09 05:02:34;;;;;;;24.00;18.45;;;4.80;99.90;;;;;;5092271;28;20051;-80
2021/03/09 05:05:00;;;;;;;25.83;19.38;;;5.00;99.90;;;;;;5092483;28;20020;-80
2021/03/09 05:07:25;;;;;;;25.25;18.08;;;4.90;99.90;;;;;;5091494;28;20061;-80
2021/03/09 05:09:51;;;;;;;24.60;18.65;;;5.10;99.90;;;;;;5092061;28;20095;-80
2021/03/09 05:12:17;;;;;;;23.58;18.52;;;5.10;99.90;;;;;;5092831;28;20070;-80
2021/03/09 05:14:43;;;;;;;23.70;18.00;;;5.20;99.90;;;;;;5092180;28;20027;-80
2021/03/09 05:17:08;;;;;;;23.35;18.70;;;5.30;99.90;;;;;;5092838;28;20039;-80
2021/03/09 05:19:34;;;;;;;25.88;19.42;;;5.10;99.90;;;;;;5092666;28;20491;-80
2021/03/09 05:21:59;;;;;;;25.33;18.20;;;5.10;99.90;;;;;;5074180;28;20383;-81
2021/03/09 05:24:25;;;;;;;28.35;18.25;;;5.30;99.90;;;;;;5092511;28;20025;-82
2021/03/09 05:26:51;;;;;;;23.85;17.00;;;5.10;99.90;;;;;;5092131;28;20376;-82
2021/03/09 05:29:16;;;;;;;22.67;17.90;;;4.60;99.90;;;;;;5092076;28;20019;-82
2021/03/09 05:31:42;;;;;;;21.92;17.48;;;4.60;99.90;;;;;;5092056;28;20028;-82
2021/03/09 05:34:07;;;;;;;26.10;17.63;;;4.80;99.90;;;;;;5092670;28;20487;-82
2021/03/09 05:36:33;;;;;;;23.52;18.42;;;4.80;99.90;;;;;;5092275;28;20098;-82
2021/03/09 05:38:59;;;;;;;22.90;18.00;;;4.40;99.90;;;;;;5092819;28;20020;-82
2021/03/09 05:41:25;;;;;;;24.02;18.10;;;5.00;99.90;;;;;;5092713;28;20024;-81
2021/03/09 05:43:54;;;;;;;26.00;18.20;;;4.30;99.90;;;;;;5092199;28;20016;-80
2021/03/09 05:46:20;;;;;;;23.38;17.33;;;4.30;99.90;;;;;;5092818;28;20071;-80
2021/03/09 05:48:45;;;;;;;23.25;17.98;;;4.20;99.90;;;;;;5085042;28;20021;-80
2021/03/09 05:51:11;;;;;;;25.35;17.83;;;4.70;99.90;;;;;;5071818;28;20192;-80
2021/03/09 05:53:37;;;;;;;24.15;17.45;;;4.20;99.90;;;;;;5071954;28;20417;-80
2021/03/09 05:56:07;;;;;;;24.17;18.42;;;4.10;99.90;;;;;;5072135;28;20492;-80
2021/03/09 05:58:33;;;;;;;24.30;18.45;;;4.20;99.90;;;;;;5082443;28;20020;-80
2021/03/09 06:00:59;;;;;;;25.55;19.10;;;4.10;99.90;;;;;;5092057;28;20038;-82
2021/03/09 06:03:26;;;;;;;24.55;18.30;;;4.20;99.90;;;;;;5091911;28;20036;-82
2021/03/09 06:05:52;;;;;;;24.70;19.08;;;4.20;99.90;;;;;;5083427;28;20143;-82
2021/03/09 06:08:17;;;;;;;22.67;17.88;;;4.20;99.90;;;;;;5053940;28;20104;-82
2021/03/09 06:10:44;;;;;;;23.98;17.80;;;4.70;99.90;;;;;;5073067;28;20035;-82
2021/03/09 06:13:27;;;;;;;27.13;19.90;;;4.50;99.90;;;;;;5087235;28;20028;-82
2021/03/09 06:15:53;;;;;;;30.75;22.38;;;4.30;99.90;;;;;;5095022;28;20024;-82
2021/03/09 06:18:25;;;;;;;33.78;24.40;;;4.80;99.90;;;;;;5095320;28;20105;-82
2021/03/09 06:21:14;;;;;;;33.50;27.05;;;4.40;99.90;;;;;;5094877;28;20016;-80
2021/03/09 06:23:41;;;;;;;28.77;23.42;;;4.40;99.90;;;;;;5095279;28;20472;-80
2021/03/09 06:26:39;;;;;;;24.80;18.98;;;4.50;99.90;;;;;;5095193;28;20103;-80
2021/03/09 06:29:12;;;;;;;27.33;18.45;;;4.40;99.90;;;;;;5074573;28;20536;-80
2021/03/09 06:32:00;;;;;;;24.13;18.05;;;4.40;99.90;;;;;;5074856;28;20024;-80
2021/03/09 06:34:25;;;;;;;23.77;18.02;;;4.40;99.90;;;;;;5074410;28;20559;-80
2021/03/09 06:37:11;;;;;;;26.05;17.70;;;4.40;99.90;;;;;;5074662;28;20100;-80
2021/03/09 06:39:51;;;;;;;24.13;18.05;;;4.90;99.90;;;;;;5075117;28;20020;-80
2021/03/09 06:42:20;;;;;;;26.85;18.05;;;4.50;99.90;;;;;;5074777;28;20465;-80
2021/03/09 06:44:54;;;;;;;26.48;19.08;;;4.50;99.90;;;;;;5074431;28;20104;-81
2021/03/09 06:47:39;;;;;;;25.52;18.90;;;4.50;99.90;;;;;;5074728;28;20028;-82
2021/03/09 06:50:13;;;;;;;23.77;18.10;;;4.80;99.90;;;;;;5074659;28;20024;-83
2021/03/09 06:52:40;;;;;;;27.05;18.73;;;4.50;99.90;;;;;;5056716;28;20412;-83
2021/03/09 06:55:08;;;;;;;26.13;18.83;;;5.00;99.90;;;;;;5056860;28;20024;-82
2021/03/09 06:57:34;;;;;;;25.63;18.25;;;4.70;99.90;;;;;;5084042;28;20016;-81
2021/03/09 07:00:00;;;;;;;25.77;19.60;;;5.40;99.90;;;;;;5094923;28;20061;-81
2021/03/09 07:02:29;;;;;;;24.98;18.33;;;5.50;99.90;;;;;;5094510;28;20464;-80
2021/03/09 07:05:08;;;;;;;24.80;19.35;;;5.40;99.90;;;;;;5074631;28;20032;-82
2021/03/09 07:07:39;;;;;;;25.85;18.63;;;4.90;99.90;;;;;;5075321;28;20029;-82
2021/03/09 07:10:06;;;;;;;24.70;17.80;;;5.10;99.90;;;;;;5095252;28;20028;-82
2021/03/09 07:12:33;;;;;;;25.17;18.50;;;4.80;99.90;;;;;;5094404;28;20028;-82
2021/03/09 07:14:59;;;;;;;27.02;19.02;;;5.40;99.90;;;;;;5095351;28;20064;-82
2021/03/09 07:17:28;;;;;;;24.55;18.92;;;5.50;99.90;;;;;;5095099;28;20016;-82
2021/03/09 07:19:55;;;;;;;23.77;18.67;;;5.00;99.90;;;;;;5094423;28;20012;-82
2021/03/09 07:22:22;;;;;;;26.35;18.70;;;5.60;99.90;;;;;;5094100;28;20468;-82
2021/03/09 07:25:12;;;;;;;23.17;18.05;;;5.70;99.90;;;;;;5094666;28;20027;-82
2021/03/09 07:27:37;;;;;;;22.33;17.30;;;5.00;99.90;;;;;;5094496;28;20422;-82
2021/03/09 07:30:05;;;;;;;26.75;18.25;;;4.80;99.90;;;;;;5094486;28;20032;-82
2021/03/09 07:32:31;;;;;;;25.75;17.42;;;4.90;99.90;;;;;;5076113;28;20098;-82
2021/03/09 07:34:59;;;;;;;22.67;18.02;;;5.20;99.90;;;;;;5094021;28;20439;-81
2021/03/09 07:37:25;;;;;;;24.67;17.38;;;5.90;99.90;;;;;;5094624;28;20015;-81
2021/03/09 07:39:51;;;;;;;22.23;17.60;;;5.20;99.90;;;;;;5077821;28;20032;-81
2021/03/09 07:42:18;;;;;;;25.52;18.88;;;5.20;99.90;;;;;;5085897;28;20021;-81
2021/03/09 07:44:46;;;;;;;24.85;18.27;;;5.40;99.90;;;;;;5092915;28;20372;-81
2021/03/09 07:47:12;;;;;;;29.50;19.33;;;6.10;99.90;;;;;;5093074;28;20028;-81
2021/03/09 07:49:39;;;;;;;26.20;18.83;;;5.90;99.90;;;;;;5074711;28;20067;-80
2021/03/09 07:52:19;;;;;;;26.33;18.48;;;5.90;99.90;;;;;;5093865;28;20023;-80
2021/03/09 07:55:03;;;;;;;23.88;17.73;;;5.40;99.90;;;;;;5093906;28;20054;-80
2021/03/09 07:57:30;;;;;;;23.08;17.60;;;5.60;99.90;;;;;;5093819;28;20473;-80
2021/03/09 07:59:57;;;;;;;26.58;18.02;;;5.40;99.90;;;;;;5093699;28;20025;-80
2021/03/09 08:02:44;;;;;;;25.80;18.00;;;5.60;99.90;;;;;;5093318;28;20016;-80
2021/03/09 08:05:14;;;;;;;23.33;18.27;;;5.60;99.90;;;;;;5093074;28;20487;-81
2021/03/09 08:07:46;;;;;;;24.17;17.85;;;5.50;99.90;;;;;;5090784;28;20012;-80
2021/03/09 08:10:27;;;;;;;22.95;17.73;;;6.00;99.90;;;;;;5093949;28;20837;-80
2021/03/09 08:12:54;;;;;;;25.05;17.77;;;6.20;99.90;;;;;;5074037;28;20115;-80
2021/03/09 08:15:21;;;;;;;24.55;17.67;;;6.30;99.90;;;;;;5073910;28;20028;-80
2021/03/09 08:17:46;;;;;;;28.05;18.58;;;6.10;99.90;;;;;;5073611;28;20017;-81
2021/03/09 08:20:53;;;;;;;28.23;19.20;;;6.10;99.90;;;;;;5073220;28;20430;-80
2021/03/09 08:23:34;;;;;;;25.80;19.02;;;6.10;99.90;;;;;;5073077;28;20404;-81
2021/03/09 08:26:03;;;;;;;25.63;18.15;;;6.80;99.90;;;;;;5082268;28;20024;-82
2021/03/09 08:28:36;;;;;;;28.27;18.98;;;6.50;99.90;;;;;;5093496;28;20044;-80
2021/03/09 08:31:11;;;;;;;25.02;18.15;;;6.50;99.90;;;;;;5093067;28;20024;-80
2021/03/09 08:33:47;;;;;;;23.88;18.52;;;7.10;99.90;;;;;;5092413;28;20024;-81
2021/03/09 08:36:26;;;;;;;25.17;18.48;;;6.80;99.90;;;;;;5093102;28;20502;-81
2021/03/09 08:39:00;;;;;;;23.02;17.92;;;7.00;99.90;;;;;;5093176;28;20468;-82
2021/03/09 08:41:47;;;;;;;24.08;18.30;;;7.80;99.90;;;;;;5092865;28;20023;-82
2021/03/09 08:44:19;;;;;;;24.55;18.55;;;7.70;99.90;;;;;;5075401;28;20055;-82
2021/03/09 08:47:00;;;;;;;24.77;17.85;;;7.80;99.90;;;;;;5092727;28;20510;-82
2021/03/09 08:49:37;;;;;;;19.98;16.13;;;8.40;99.90;;;;;;5092982;28;20028;-81
2021/03/09 08:52:07;;;;;;;24.73;17.67;;;10.30;99.90;;;;;;5092817;28;20016;-81
2021/03/09 08:54:39;;;;;;;21.50;16.73;;;12.90;99.90;;;;;;5092874;28;20391;-81
2021/03/09 08:57:18;;;;;;;18.42;14.93;;;15.70;99.90;;;;;;5092975;28;20023;-80
2021/03/09 08:59:48;;;;;;;21.30;16.23;;;17.40;99.90;;;;;;5092243;28;20032;-81
2021/03/09 09:02:16;;;;;;;22.20;16.92;;;18.70;99.90;;;;;;5092269;28;20016;-82
2021/03/09 09:05:06;;;;;;;19.48;16.20;;;20.00;99.90;;;;;;5092905;28;20059;-80
2021/03/09 09:07:59;;;;;;;20.27;16.33;;;19.90;99.90;;;;;;5092925;28;20099;-81
2021/03/09 09:10:27;;;;;;;24.30;18.70;;;22.00;99.90;;;;;;5087458;28;20043;-81
2021/03/09 09:12:54;;;;;;;22.30;18.10;;;23.00;99.90;;;;;;5092835;28;20024;-80
2021/03/09 09:15:30;;;;;;;21.05;17.70;;;23.00;99.90;;;;;;5092267;28;20032;-80
2021/03/09 09:18:04;;;;;;;20.83;17.65;;;23.60;99.90;;;;;;5092707;28;20096;-80
2021/03/09 09:20:38;;;;;;;20.17;17.08;;;22.70;99.90;;;;;;5092431;28;20464;-80
2021/03/09 09:23:13;;;;;;;21.50;17.60;;;20.80;99.90;;;;;;5092494;28;20061;-80
2021/03/09 09:25:44;;;;;;;20.58;17.20;;;17.40;99.90;;;;;;5092501;28;20129;-80
2021/03/09 09:28:38;;;;;;;20.08;16.90;;;15.50;99.90;;;;;;5092107;28;20051;-80
2021/03/09 09:31:16;;;;;;;20.40;17.50;;;14.60;99.90;;;;;;5092572;28;20031;-80
2021/03/09 09:33:53;;;;;;;23.92;17.67;;;17.80;99.90;;;;;;5092357;28;20024;-81
2021/03/09 09:36:23;;;;;;;20.60;17.20;;;17.70;99.90;;;;;;5092977;28;20043;-80
2021/03/09 09:38:50;;;;;;;19.52;17.42;;;17.10;99.90;;;;;;5093046;28;20024;-81
2021/03/09 09:41:18;;;;;;;21.95;17.58;;;17.50;99.90;;;;;;5093019;28;20043;-81
2021/03/09 09:43:44;;;;;;;20.85;18.05;;;18.60;99.90;;;;;;5074635;28;20514;-81
2021/03/09 09:46:21;;;;;;;18.88;16.23;;;17.20;99.90;;;;;;5095695;28;20028;-81
2021/03/09 09:48:47;;;;;;;22.67;17.70;;;16.20;99.90;;;;;;5096996;28;20040;-81
2021/03/09 09:51:15;;;;;;;19.75;16.60;;;17.50;99.90;;;;;;5097128;28;20026;-81
2021/03/09 09:53:43;;;;;;;19.98;15.77;;;19.70;99.90;;;;;;5096546;28;20059;-81
2021/03/09 09:56:31;;;;;;;18.98;16.98;;;20.90;99.90;;;;;;5097037;28;20086;-81
2021/03/09 09:59:00;;;;;;;26.35;17.90;;;21.60;99.90;;;;;;5095482;28;20523;-81
2021/03/09 10:01:32;;;;;;;20.35;16.88;;;24.00;99.90;;;;;;5097150;28;20039;-81
2021/03/09 10:03:58;;;;;;;20.45;17.15;;;23.00;99.90;;;;;;5096548;28;20040;-81
2021/03/09 10:06:45;;;;;;;19.35;17.17;;;21.30;99.90;;;;;;5096780;28;20028;-81
2021/03/09 10:09:19;;;;;;;19.65;17.52;;;23.10;99.90;;;;;;5096425;28;20384;-81
2021/03/09 10:11:56;;;;;;;20.48;17.75;;;22.90;99.90;;;;;;5095752;28;20058;-81
2021/03/09 10:14:28;;;;;;;19.77;16.73;;;24.00;99.90;;;;;;5096146;28;20103;-81
2021/03/09 10:16:55;;;;;;;20.33;17.67;;;24.50;99.90;;;;;;5095965;28;20031;-82
2021/03/09 10:19:22;;;;;;;19.38;16.90;;;26.30;99.90;;;;;;5087145;28;20009;-82
2021/03/09 10:21:54;;;;;;;17.88;16.08;;;26.30;99.90;;;;;;5087882;28;20055;-82
2021/03/09 10:24:26;;;;;;;18.35;16.45;;;25.40;99.90;;;;;;5092526;28;20036;-82
2021/03/09 10:26:52;;;;;;;19.40;17.42;;;27.00;99.90;;;;;;5080386;28;20020;-82
2021/03/09 10:29:20;;;;;;;18.92;16.52;;;27.30;99.90;;;;;;5096134;28;20027;-82
2021/03/09 10:31:59;;;;;;;18.40;16.42;;;25.70;99.90;;;;;;5095313;28;20043;-82
2021/03/09 10:34:38;;;;;;;17.80;15.98;;;27.00;99.90;;;;;;5095556;28;20016;-82
2021/03/09 10:37:06;;;;;;;17.55;15.85;;;26.60;99.90;;;;;;5096198;28;20026;-82
2021/03/09 10:39:34;;;;;;;18.00;16.10;;;27.40;99.90;;;;;;5096058;28;20020;-82
2021/03/09 10:42:25;;;;;;;18.63;16.77;;;26.50;99.90;;;;;;5095875;28;20024;-81
2021/03/09 10:44:51;;;;;;;18.45;16.55;;;28.20;99.90;;;;;;5095704;28;20052;-81
2021/03/09 10:47:16;;;;;;;17.92;16.02;;;27.20;99.90;;;;;;5096238;28;20077;-81
2021/03/09 10:49:42;;;;;;;18.77;16.83;;;28.80;99.90;;;;;;5096045;28;20451;-81
2021/03/09 10:52:09;;;;;;;17.75;16.05;;;30.20;99.90;;;;;;5096088;28;20040;-81
2021/03/09 10:54:37;;;;;;;18.33;16.42;;;30.80;99.90;;;;;;5095617;28;20016;-82
2021/03/09 10:57:11;;;;;;;18.30;16.45;;;30.80;99.90;;;;;;5094229;28;20019;-83
2021/03/09 10:59:39;;;;;;;19.67;17.13;;;28.50;99.90;;;;;;5094195;28;20020;-82
2021/03/09 11:02:06;;;;;;;19.52;17.65;;;27.80;99.90;;;;;;5095562;28;20108;-82
2021/03/09 11:04:33;;;;;;;19.08;17.17;;;28.40;99.90;;;;;;5094093;28;20507;-81
2021/03/09 11:06:58;;;;;;;19.90;16.95;;;27.90;99.90;;;;;;5094922;28;20028;-81
2021/03/09 11:09:24;;;;;;;18.50;16.70;;;28.10;99.90;;;;;;5092120;28;20020;-81
2021/03/09 11:11:50;;;;;;;19.27;17.45;;;29.40;99.90;;;;;;5094733;28;20032;-81
2021/03/09 11:14:15;;;;;;;18.70;16.80;;;32.10;99.90;;;;;;5094814;28;20031;-83
2021/03/09 11:16:41;;;;;;;20.15;18.13;;;31.50;99.90;;;;;;5062467;28;20039;-82
2021/03/09 11:19:07;;;;;;;19.17;17.35;;;31.50;99.90;;;;;;5095047;28;20047;-82
2021/03/09 11:21:33;;;;;;;19.98;18.02;;;31.70;99.90;;;;;;5095476;28;20028;-81
2021/03/09 11:23:58;;;;;;;19.85;17.67;;;32.60;99.90;;;;;;5094911;28;20066;-81
2021/03/09 11:26:25;;;;;;;19.90;18.00;;;33.00;99.90;;;;;;5094889;28;20024;-82
2021/03/09 11:28:53;;;;;;;20.17;17.63;;;31.20;99.90;;;;;;5090058;28;20012;-82
2021/03/09 11:31:19;;;;;;;20.33;18.45;;;31.30;99.90;;;;;;5095196;28;20017;-82
2021/03/09 11:33:45;;;;;;;21.08;19.08;;;33.20;99.90;;;;;;5094265;28;20016;-81
2021/03/09 11:36:12;;;;;;;20.83;18.92;;;32.70;99.90;;;;;;5093827;28;20035;-81
2021/03/09 11:38:43;;;;;;;20.63;18.73;;;32.10;99.90;;;;;;5090149;28;20012;-85
2021/03/09 11:41:09;;;;;;;19.95;18.00;;;31.50;99.90;;;;;;5093540;28;20032;-82
2021/03/09 11:43:36;;;;;;;20.10;18.17;;;31.20;99.90;;;;;;5095194;28;20020;-82
2021/03/09 11:46:02;;;;;;;21.85;19.63;;;30.30;99.90;;;;;;5092632;28;20134;-82
2021/03/09 11:48:27;;;;;;;21.60;19.60;;;30.40;99.90;;;;;;5078601;28;20056;-82
2021/03/09 11:50:53;;;;;;;21.92;19.98;;;28.70;99.90;;;;;;5089500;28;20135;-82
2021/03/09 11:53:19;;;;;;;20.60;18.70;;;28.00;99.90;;;;;;5074852;28;20511;-82
2021/03/09 11:55:45;;;;;;;19.60;17.75;;;30.40;99.90;;;;;;5081267;28;20025;-82
2021/03/09 11:58:11;;;;;;;21.52;19.52;;;29.90;99.90;;;;;;5080403;28;20087;-82
2021/03/09 12:00:36;;;;;;;20.58;18.63;;;29.10;99.90;;;;;;5082206;28;20103;-82
2021/03/09 12:03:02;;;;;;;20.50;18.60;;;29.80;99.90;;;;;;5078746;28;20043;-82
2021/03/09 12:05:28;;;;;;;20.67;18.63;;;31.40;99.90;;;;;;5086308;28;20071;-84
2021/03/09 12:07:54;;;;;;;20.10;18.23;;;32.10;99.90;;;;;;5088838;28;20558;-83
2021/03/09 12:10:20;;;;;;;20.90;18.95;;;33.00;99.90;;;;;;5079858;28;20019;-82
2021/03/09 12:12:45;;;;;;;20.02;18.13;;;30.50;99.90;;;;;;5065174;28;20020;-83
2021/03/09 12:15:12;;;;;;;21.00;18.90;;;31.40;99.90;;;;;;5082392;28;20476;-82
2021/03/09 12:17:39;;;;;;;22.25;20.10;;;31.10;99.90;;;;;;5087180;28;20012;-83
2021/03/09 12:20:05;;;;;;;20.98;18.73;;;28.10;99.90;;;;;;5085186;28;20487;-83
2021/03/09 12:22:31;;;;;;;21.58;19.50;;;27.50;99.90;;;;;;5090344;28;20065;-83
2021/03/09 12:24:57;;;;;;;20.77;18.77;;;28.60;99.90;;;;;;5088769;28;20427;-83
2021/03/09 12:27:22;;;;;;;19.88;17.92;;;26.60;99.90;;;;;;5080377;28;20052;-83
2021/03/09 12:29:48;;;;;;;20.35;18.55;;;27.70;99.90;;;;;;5091423;28;20028;-82
2021/03/09 12:32:13;;;;;;;21.85;19.70;;;27.50;99.90;;;;;;5093458;28;20103;-82
2021/03/09 12:34:39;;;;;;;21.50;19.40;;;27.50;99.90;;;;;;5079113;28;20058;-83
2021/03/09 12:37:06;;;;;;;21.67;19.65;;;26.80;99.90;;;;;;5073393;28;20017;-82
2021/03/09 12:39:34;;;;;;;21.33;19.15;;;27.60;99.90;;;;;;5073840;28;20020;-85
2021/03/09 12:42:00;;;;;;;20.73;18.63;;;27.50;99.90;;;;;;5072542;28;20021;-83
2021/03/09 12:44:27;;;;;;;21.63;19.42;;;27.30;99.90;;;;;;5079151;28;20023;-83